To NAV CANADA Home Page Login to a new session Search on AWWS site Feedback and Comments Disclaimer Vers la page française équivalente Tips FAQ What's new on the site To the Forecasts and Observations / NOTAM section To "File a Flight Plan" website Publications and other links Update of the User's profile FIC Telephone Numbers My Weather Data Folder Route Weather Data Regional Weather Data Local Weather Data To the Forecasts and Observations / NOTAM section
Request Generated 06/26/2017 at 03:30:36 UTC . Weather information available at that time is displayed.

METAR/TAF

WINNIPEG/JAMES ARMSTRONG RICHARDSON INTL/MB    

METAR CYWG 260300Z 28006KT 15SM FEW130 FEW250 10/07 A3018 RMK AC1CI1
SLP228=
METAR CYWG 260200Z 31006KT 15SM FEW030 FEW090 12/08 A3018 RMK CU1AC1
VCSH W SLP227=
METAR CYWG 260100Z 30006KT 15SM FEW040TCU FEW080 13/09 A3018 RMK
TCU2AC1 AC TR TCU W SLP229=

TAF CYWG 252338Z 2600/2624 32012KT P6SM FEW040 SCT090 TEMPO 2600/2603
P6SM -SHRA BKN040 BKN090 PROB30 2600/2603 5SM TSRA BKN040CB
FM260300 33012KT P6SM SCT050
BECMG 2604/2606 27006KT
BECMG 2614/2616 32010KT
RMK NXT FCST BY 260600Z=
Your time UTC time
Weather data provided by Environment Canada and NAV CANADA